Time;durP1;ratioP1;P1;durP2;ratioP2;P2;SDS_P1;SDS_P2;PMS_P1;PMS_P2;Temp;Humidity;BMP_temperature;BMP_pressure;BME280_temperature;BME280_humidity;BME280_pressure;Samples;Min_cycle;Max_cycle;Signal;HPM_P1;HPM_P2
2024/03/22 00:01:20;;;;;;;1999.90;999.90;;;15.50;99.90;;;;;;5044426;28;20060;-79
2024/03/22 00:03:46;;;;;;;1999.90;999.90;;;15.50;99.90;;;;;;5034755;28;20029;-80
2024/03/22 00:06:13;;;;;;;1999.90;999.90;;;15.50;99.90;;;;;;5034151;28;20056;-79
2024/03/22 00:08:39;;;;;;;1999.90;999.90;;;15.50;99.90;;;;;;5051915;28;20029;-79
2024/03/22 00:11:05;;;;;;;1999.90;999.90;;;15.50;99.90;;;;;;5046991;28;20033;-80
2024/03/22 00:13:31;;;;;;;1999.90;999.90;;;15.40;99.90;;;;;;5034880;28;20041;-79
2024/03/22 00:15:57;;;;;;;1999.90;999.90;;;15.40;99.90;;;;;;5033497;28;20045;-79
2024/03/22 00:18:23;;;;;;;1999.90;999.90;;;15.40;99.90;;;;;;5036996;28;20030;-79
2024/03/22 00:20:49;;;;;;;1999.90;999.90;;;15.30;99.90;;;;;;5034264;28;20037;-79
2024/03/22 00:23:15;;;;;;;1999.90;999.90;;;15.30;99.90;;;;;;5034223;28;20034;-79
2024/03/22 00:25:41;;;;;;;1999.90;999.90;;;15.20;99.90;;;;;;5033572;28;20037;-79
2024/03/22 00:28:07;;;;;;;1999.90;999.90;;;15.30;99.90;;;;;;5046750;28;20390;-79
2024/03/22 00:30:34;;;;;;;1999.90;999.90;;;15.30;99.90;;;;;;5050231;28;20037;-78
2024/03/22 00:33:00;;;;;;;1999.90;999.90;;;15.20;99.90;;;;;;5034108;28;20398;-80
2024/03/22 00:35:26;;;;;;;1999.90;999.90;;;15.20;99.90;;;;;;5033771;28;20056;-79
2024/03/22 00:37:52;;;;;;;1999.90;999.90;;;15.20;99.90;;;;;;5037245;28;20086;-78
2024/03/22 00:40:20;;;;;;;1999.90;999.90;;;15.20;99.90;;;;;;5033664;28;20044;-79
2024/03/22 00:42:46;;;;;;;1999.90;999.90;;;15.20;99.90;;;;;;5034142;28;20026;-80
2024/03/22 00:45:12;;;;;;;1999.90;999.90;;;15.20;99.90;;;;;;5033202;28;20052;-79
2024/03/22 00:47:38;;;;;;;1999.90;999.90;;;15.20;99.90;;;;;;5043370;28;20036;-80
2024/03/22 00:50:06;;;;;;;1999.90;999.90;;;15.10;99.90;;;;;;5034180;28;20041;-79
2024/03/22 00:52:32;;;;;;;1999.90;999.90;;;15.10;99.90;;;;;;5034269;28;20048;-78
2024/03/22 00:54:58;;;;;;;1999.90;999.90;;;15.00;99.90;;;;;;5032073;28;20156;-80
2024/03/22 00:57:24;;;;;;;1999.90;999.90;;;15.00;99.90;;;;;;5040130;28;20465;-79
2024/03/22 00:59:50;;;;;;;1999.90;999.90;;;14.90;99.90;;;;;;5042033;28;20036;-80
2024/03/22 01:02:16;;;;;;;1999.90;999.90;;;14.80;99.90;;;;;;5033238;28;20364;-78
2024/03/22 01:04:42;;;;;;;1999.90;999.90;;;14.70;99.90;;;;;;5033226;28;20077;-79
2024/03/22 01:07:08;;;;;;;1999.90;999.90;;;14.70;99.90;;;;;;5053448;28;20064;-79
2024/03/22 01:09:34;;;;;;;1999.90;999.90;;;14.70;99.90;;;;;;5033860;28;20037;-79
2024/03/22 01:12:00;;;;;;;1999.90;999.90;;;14.60;99.90;;;;;;5032281;28;20049;-79
2024/03/22 01:14:27;;;;;;;1999.90;999.90;;;14.60;99.90;;;;;;5033446;28;20052;-79
2024/03/22 01:16:55;;;;;;;1999.90;999.90;;;14.60;99.90;;;;;;5035038;28;20045;-79
2024/03/22 01:19:22;;;;;;;1999.90;999.90;;;14.60;99.90;;;;;;5049512;28;20386;-79
2024/03/22 01:21:49;;;;;;;1999.90;999.90;;;14.70;99.90;;;;;;5032986;28;20037;-79
2024/03/22 01:24:15;;;;;;;1999.90;999.90;;;14.70;99.90;;;;;;5033144;28;20375;-80
2024/03/22 01:26:42;;;;;;;1999.90;999.90;;;14.70;99.90;;;;;;5032136;28;20036;-79
2024/03/22 01:29:08;;;;;;;1999.90;999.90;;;14.60;99.90;;;;;;5034383;28;20053;-79
2024/03/22 01:31:34;;;;;;;1999.90;999.90;;;14.60;99.90;;;;;;5032651;28;20049;-79
2024/03/22 01:34:00;;;;;;;1999.90;999.90;;;14.50;99.90;;;;;;5032725;28;20048;-79
2024/03/22 01:36:26;;;;;;;1999.90;999.90;;;14.50;99.90;;;;;;5032418;28;20041;-79
2024/03/22 01:38:52;;;;;;;1999.90;999.90;;;14.50;99.90;;;;;;5031939;28;20245;-79
2024/03/22 01:41:18;;;;;;;1999.90;999.90;;;14.50;99.90;;;;;;5033124;28;20518;-72
2024/03/22 01:43:44;;;;;;;1999.90;999.90;;;14.50;99.90;;;;;;5032521;28;20057;-72
2024/03/22 01:46:10;;;;;;;1999.90;999.90;;;14.50;99.90;;;;;;5032259;28;20398;-72
2024/03/22 01:48:36;;;;;;;1999.90;999.90;;;14.40;99.90;;;;;;5047521;28;20040;-71
2024/03/22 01:51:03;;;;;;;1999.90;999.90;;;14.40;99.90;;;;;;5039321;28;20033;-70
2024/03/22 01:53:31;;;;;;;1999.90;999.90;;;14.40;99.90;;;;;;5031242;28;20057;-72
2024/03/22 01:55:57;;;;;;;1999.90;999.90;;;14.30;99.90;;;;;;5031347;28;20041;-72
2024/03/22 01:58:23;;;;;;;1999.90;999.90;;;14.20;99.90;;;;;;5043546;28;20041;-72
2024/03/22 02:00:50;;;;;;;1999.90;999.90;;;14.30;99.90;;;;;;5044002;28;20041;-72
2024/03/22 02:03:16;;;;;;;1999.90;999.90;;;14.20;99.90;;;;;;5032617;28;20048;-71
2024/03/22 02:05:42;;;;;;;1999.90;999.90;;;14.20;99.90;;;;;;5031629;28;20029;-72
2024/03/22 02:08:08;;;;;;;1999.90;999.90;;;14.20;99.90;;;;;;5043822;28;20033;-72
2024/03/22 02:10:34;;;;;;;1999.90;999.90;;;14.20;99.90;;;;;;5046730;28;20040;-72
2024/03/22 02:13:00;;;;;;;1999.90;999.90;;;14.20;99.90;;;;;;5031153;28;20371;-72
2024/03/22 02:15:26;;;;;;;1999.90;999.90;;;14.20;99.90;;;;;;5031512;28;20037;-72
2024/03/22 02:17:52;;;;;;;1999.90;999.90;;;14.10;99.90;;;;;;5040626;28;20025;-71
2024/03/22 02:20:18;;;;;;;1999.90;999.90;;;14.10;99.90;;;;;;5049402;28;20397;-72
2024/03/22 02:22:44;;;;;;;1999.90;999.90;;;14.10;99.90;;;;;;5031859;28;20030;-72
2024/03/22 02:25:10;;;;;;;1999.90;999.90;;;14.10;99.90;;;;;;5031658;28;20034;-72
2024/03/22 02:27:38;;;;;;;1999.90;999.90;;;14.10;99.90;;;;;;5030454;28;20397;-72
2024/03/22 02:30:05;;;;;;;1999.90;999.90;;;14.10;99.90;;;;;;5031838;28;20029;-72
2024/03/22 02:32:31;;;;;;;1999.90;999.90;;;14.00;99.90;;;;;;5042151;28;20497;-72
2024/03/22 02:34:57;;;;;;;1999.90;999.90;;;14.00;99.90;;;;;;5031836;28;20033;-72
2024/03/22 02:37:23;;;;;;;1999.90;999.90;;;14.00;99.90;;;;;;5031204;28;20036;-72
2024/03/22 02:39:49;;;;;;;1999.90;999.90;;;14.00;99.90;;;;;;5032269;28;20026;-72
2024/03/22 02:42:15;;;;;;;1999.90;999.90;;;13.90;99.90;;;;;;5040339;28;20493;-78
2024/03/22 02:44:44;;;;;;;1999.90;999.90;;;13.90;99.90;;;;;;5047212;28;20056;-79
2024/03/22 02:47:10;;;;;;;1999.90;999.90;;;13.90;99.90;;;;;;5037339;28;20040;-79
2024/03/22 02:49:37;;;;;;;1999.90;999.90;;;13.80;99.90;;;;;;5049992;28;20037;-80
2024/03/22 02:52:04;;;;;;;1999.90;999.90;;;13.70;99.90;;;;;;5034070;28;20029;-79
2024/03/22 02:54:30;;;;;;;1999.90;999.90;;;13.70;99.90;;;;;;5031921;28;20025;-79
2024/03/22 02:56:56;;;;;;;1999.90;999.90;;;13.70;99.90;;;;;;5031744;28;20084;-79
2024/03/22 02:59:26;;;;;;;1999.90;999.90;;;13.70;99.90;;;;;;5051198;28;20037;-79
2024/03/22 03:01:52;;;;;;;1999.90;999.90;;;13.60;99.90;;;;;;5036531;28;20037;-79
2024/03/22 03:04:18;;;;;;;1999.90;999.90;;;13.60;99.90;;;;;;5026310;28;20037;-79
2024/03/22 03:06:45;;;;;;;1999.90;999.90;;;13.60;99.90;;;;;;5026807;28;20040;-80
2024/03/22 03:09:12;;;;;;;1999.90;999.90;;;13.60;99.90;;;;;;5045288;28;20033;-79
2024/03/22 03:11:39;;;;;;;1999.90;999.90;;;13.70;99.90;;;;;;5030209;28;20032;-79
2024/03/22 03:14:05;;;;;;;1999.90;999.90;;;13.70;99.90;;;;;;5030097;28;20044;-78
2024/03/22 03:16:32;;;;;;;1999.90;999.90;;;13.70;99.90;;;;;;5029939;28;20050;-79
2024/03/22 03:18:58;;;;;;;1999.90;999.90;;;13.60;99.90;;;;;;5049546;28;20029;-80
2024/03/22 03:21:24;;;;;;;1999.90;999.90;;;13.60;99.90;;;;;;5058604;28;20045;-79
2024/03/22 03:23:50;;;;;;;1999.90;999.90;;;13.60;99.90;;;;;;5033628;28;20032;-79
2024/03/22 03:26:16;;;;;;;1999.90;999.90;;;13.50;99.90;;;;;;5034350;28;20430;-80
2024/03/22 03:28:42;;;;;;;1999.90;999.90;;;13.50;99.90;;;;;;5048824;28;20040;-79
2024/03/22 03:31:08;;;;;;;1999.90;999.90;;;13.40;99.90;;;;;;5045316;28;20038;-79
2024/03/22 03:33:34;;;;;;;1999.90;999.90;;;13.40;99.90;;;;;;5033411;28;20034;-79
2024/03/22 03:36:00;;;;;;;1999.90;999.90;;;13.50;99.90;;;;;;5033903;28;20057;-78
2024/03/22 03:38:27;;;;;;;1999.90;999.90;;;13.40;99.90;;;;;;5041904;28;20032;-80
2024/03/22 03:40:53;;;;;;;1999.90;999.90;;;13.40;99.90;;;;;;5036000;28;20505;-79
2024/03/22 03:43:19;;;;;;;1999.90;999.90;;;13.30;99.90;;;;;;5036364;28;20069;-79
2024/03/22 03:45:45;;;;;;;1999.90;999.90;;;13.30;99.90;;;;;;5050360;28;20521;-79
2024/03/22 03:48:11;;;;;;;1999.90;999.90;;;13.40;99.90;;;;;;5044413;28;20036;-79
2024/03/22 03:50:37;;;;;;;1999.90;999.90;;;13.30;99.90;;;;;;5038033;28;20045;-79
2024/03/22 03:53:03;;;;;;;1999.90;999.90;;;13.30;99.90;;;;;;5034907;28;20029;-79
2024/03/22 03:55:29;;;;;;;1999.90;999.90;;;13.20;99.90;;;;;;5034766;28;20104;-79
2024/03/22 03:57:56;;;;;;;1999.90;999.90;;;13.10;99.90;;;;;;5042155;28;20029;-79
2024/03/22 04:00:22;;;;;;;1999.90;999.90;;;13.00;99.90;;;;;;5048003;28;20033;-79
2024/03/22 04:02:51;;;;;;;1999.90;999.90;;;13.00;99.90;;;;;;5034473;28;20363;-79
2024/03/22 04:05:17;;;;;;;1999.90;999.90;;;13.00;99.90;;;;;;5034671;28;20389;-79
2024/03/22 04:07:47;;;;;;;1999.90;999.90;;;13.00;99.90;;;;;;5034168;28;20040;-79
2024/03/22 04:10:13;;;;;;;1999.90;999.90;;;13.00;99.90;;;;;;5034604;28;20048;-79
2024/03/22 04:12:39;;;;;;;1999.90;999.90;;;12.90;99.90;;;;;;5034678;28;20025;-79
2024/03/22 04:15:06;;;;;;;1999.90;999.90;;;12.90;99.90;;;;;;5033795;28;20037;-79
2024/03/22 04:17:32;;;;;;;1999.90;999.90;;;12.90;99.90;;;;;;5037652;28;20036;-79
2024/03/22 04:19:58;;;;;;;1999.90;999.90;;;13.00;99.90;;;;;;5045507;28;20026;-78
2024/03/22 04:22:24;;;;;;;1999.90;999.90;;;13.00;99.90;;;;;;5031403;28;20390;-79
2024/03/22 04:24:50;;;;;;;1999.90;999.90;;;13.00;99.90;;;;;;5034704;28;20037;-79
2024/03/22 04:27:16;;;;;;;1999.90;999.90;;;13.00;99.90;;;;;;5042048;28;20037;-78
2024/03/22 04:29:42;;;;;;;1999.90;999.90;;;13.00;99.90;;;;;;5033841;28;20029;-79
2024/03/22 04:32:08;;;;;;;1999.90;999.90;;;13.00;99.90;;;;;;5033139;28;20034;-79
2024/03/22 04:34:34;;;;;;;1999.90;999.90;;;12.90;99.90;;;;;;5047621;28;20037;-79
2024/03/22 04:37:01;;;;;;;1999.90;999.90;;;12.80;99.90;;;;;;5033276;28;20501;-79
2024/03/22 04:39:27;;;;;;;1999.90;999.90;;;12.80;99.90;;;;;;5041893;28;20026;-79
2024/03/22 04:41:53;;;;;;;1999.90;999.90;;;12.80;99.90;;;;;;5039443;28;20056;-80
2024/03/22 04:44:19;;;;;;;1999.90;999.90;;;12.80;99.90;;;;;;5054065;28;20049;-72
2024/03/22 04:46:45;;;;;;;1999.90;999.90;;;12.70;99.90;;;;;;5035637;28;20037;-72
2024/03/22 04:49:11;;;;;;;1999.90;999.90;;;12.70;99.90;;;;;;5033070;28;20029;-72
2024/03/22 04:51:37;;;;;;;1999.90;999.90;;;12.70;99.90;;;;;;5034176;28;20505;-72
2024/03/22 04:54:03;;;;;;;1999.90;999.90;;;12.60;99.90;;;;;;5033963;28;20029;-72
2024/03/22 04:56:29;;;;;;;1999.90;999.90;;;12.50;99.90;;;;;;5033422;28;20034;-72
2024/03/22 04:58:56;;;;;;;1999.90;999.90;;;12.40;99.90;;;;;;5043662;28;20030;-72
2024/03/22 05:01:23;;;;;;;1999.90;999.90;;;12.40;99.90;;;;;;5040787;28;20029;-72
2024/03/22 05:03:49;;;;;;;1999.90;999.90;;;12.40;99.90;;;;;;5032749;28;20049;-72
2024/03/22 05:06:16;;;;;;;1999.90;999.90;;;12.40;99.90;;;;;;5031733;28;20042;-73
2024/03/22 05:08:42;;;;;;;1999.90;999.90;;;12.30;99.90;;;;;;5032975;28;20042;-72
2024/03/22 05:11:08;;;;;;;1999.90;999.90;;;12.30;99.90;;;;;;5033183;28;20033;-72
2024/03/22 05:13:34;;;;;;;1999.90;999.90;;;12.40;99.90;;;;;;5049510;28;20040;-73
2024/03/22 05:16:00;;;;;;;1999.90;999.90;;;12.50;99.90;;;;;;5040965;28;20038;-72
2024/03/22 05:18:26;;;;;;;1999.90;999.90;;;12.40;99.90;;;;;;5050276;28;20041;-72
2024/03/22 05:20:52;;;;;;;1999.90;999.90;;;12.40;99.90;;;;;;5046207;28;20485;-72
2024/03/22 05:23:18;;;;;;;1999.90;999.90;;;12.40;99.90;;;;;;5033312;28;20026;-71
2024/03/22 05:25:44;;;;;;;1999.90;999.90;;;12.40;99.90;;;;;;5032350;28;20482;-72
2024/03/22 05:28:10;;;;;;;1999.90;999.90;;;12.40;99.90;;;;;;5033136;28;20029;-71
2024/03/22 05:30:37;;;;;;;1999.90;999.90;;;12.40;99.90;;;;;;5031191;28;20037;-72
2024/03/22 05:33:03;;;;;;;1999.90;999.90;;;12.40;99.90;;;;;;5043113;28;20035;-72
2024/03/22 05:35:29;;;;;;;1999.90;999.90;;;12.40;99.90;;;;;;5034723;28;20025;-72
2024/03/22 05:37:55;;;;;;;1999.90;999.90;;;12.40;99.90;;;;;;5031073;28;20049;-72
2024/03/22 05:40:21;;;;;;;1999.90;999.90;;;12.40;99.90;;;;;;5032167;28;20490;-72
2024/03/22 05:42:47;;;;;;;1999.90;999.90;;;12.40;99.90;;;;;;5039112;28;20041;-72
2024/03/22 05:45:14;;;;;;;1999.90;999.90;;;12.30;99.90;;;;;;5036292;28;20041;-80
2024/03/22 05:47:40;;;;;;;1999.90;999.90;;;12.30;99.90;;;;;;5032594;28;20025;-80
2024/03/22 05:50:08;;;;;;;1999.90;999.90;;;12.20;99.90;;;;;;5032401;28;20036;-80
2024/03/22 05:52:34;;;;;;;1999.90;999.90;;;12.00;99.90;;;;;;5032086;28;20045;-76
2024/03/22 05:55:00;;;;;;;1999.90;999.90;;;11.90;99.90;;;;;;5032935;28;20026;-79
2024/03/22 05:57:26;;;;;;;1999.90;999.90;;;11.90;99.90;;;;;;5031622;28;20040;-79
2024/03/22 05:59:53;;;;;;;1999.90;999.90;;;11.90;99.90;;;;;;5031915;28;20030;-78
2024/03/22 06:02:19;;;;;;;1999.90;999.90;;;12.00;99.90;;;;;;5033102;28;20056;-78
2024/03/22 06:04:45;;;;;;;1999.90;999.90;;;12.00;99.90;;;;;;5039423;28;20029;-79
2024/03/22 06:07:12;;;;;;;1999.90;999.90;;;12.00;99.90;;;;;;5052578;28;20355;-79
2024/03/22 06:09:45;;;;;;;1999.90;999.90;;;12.00;99.90;;;;;;5048815;28;20044;-79
2024/03/22 06:12:13;;;;;;;33.42;31.75;;;11.90;99.90;;;;;;5038658;28;20025;-79
2024/03/22 06:14:40;;;;;;;44.65;42.42;;;11.50;99.90;;;;;;5039734;28;20042;-78
2024/03/22 06:17:06;;;;;;;45.63;43.35;;;11.40;99.90;;;;;;5032427;28;20045;-78
2024/03/22 06:19:32;;;;;;;37.50;35.60;;;11.20;99.90;;;;;;5048965;28;20052;-78
2024/03/22 06:21:58;;;;;;;48.28;45.88;;;11.20;99.90;;;;;;5030995;28;20038;-78
2024/03/22 06:24:24;;;;;;;55.13;52.47;;;11.00;99.90;;;;;;5035907;28;20033;-79
2024/03/22 06:26:51;;;;;;;26.60;25.35;;;10.60;99.90;;;;;;5031551;28;20517;-79
2024/03/22 06:29:17;;;;;;;50.67;48.20;;;10.60;99.90;;;;;;5031679;28;20025;-78
2024/03/22 06:31:43;;;;;;;33.28;31.73;;;10.70;99.90;;;;;;5029437;28;20056;-78
2024/03/22 06:34:09;;;;;;;29.25;27.77;;;10.70;99.90;;;;;;5039055;28;20037;-79
2024/03/22 06:36:35;;;;;;;46.53;44.28;;;10.60;99.90;;;;;;5032002;28;20048;-78
2024/03/22 06:39:06;;;;;;;85.22;81.13;;;10.50;99.90;;;;;;5031571;28;20021;-79
2024/03/22 06:41:32;;;;;;;58.88;56.08;;;10.50;99.90;;;;;;5030842;28;20048;-79
2024/03/22 06:43:58;;;;;;;43.35;41.25;;;10.80;99.90;;;;;;5031656;28;20053;-79
2024/03/22 06:46:24;;;;;;;32.22;30.73;;;10.90;99.90;;;;;;5031094;28;20042;-78
2024/03/22 06:48:51;;;;;;;49.90;47.53;;;11.00;99.90;;;;;;5032321;28;20056;-75
2024/03/22 06:51:17;;;;;;;78.80;75.00;;;10.90;99.90;;;;;;5033620;28;20037;-75
2024/03/22 06:53:45;;;;;;;54.50;51.88;;;11.00;99.90;;;;;;5058728;28;20025;-75
2024/03/22 06:56:14;;;;;;;60.08;57.25;;;10.80;99.90;;;;;;5038956;28;20044;-75
2024/03/22 06:58:40;;;;;;;159.13;151.15;;;10.80;99.90;;;;;;5038485;28;20022;-75
2024/03/22 07:01:06;;;;;;;22.63;21.60;;;10.90;99.90;;;;;;5035334;28;20033;-75
2024/03/22 07:03:33;;;;;;;25.20;24.02;;;10.90;99.90;;;;;;5047556;28;20033;-75
2024/03/22 07:05:59;;;;;;;47.58;45.28;;;11.00;99.90;;;;;;5042964;28;20037;-75
2024/03/22 07:08:25;;;;;;;30.05;28.60;;;11.10;99.90;;;;;;5047601;28;20049;-75
2024/03/22 07:10:54;;;;;;;46.80;44.58;;;10.90;99.90;;;;;;5052277;28;20497;-74
2024/03/22 07:13:21;;;;;;;31.25;29.75;;;10.60;99.90;;;;;;5038260;28;20037;-75
2024/03/22 07:15:49;;;;;;;44.97;42.85;;;10.60;99.90;;;;;;5036020;28;20060;-75
2024/03/22 07:18:15;;;;;;;35.22;33.58;;;10.80;99.90;;;;;;5037368;28;20033;-75
2024/03/22 07:20:42;;;;;;;31.00;29.55;;;11.00;99.90;;;;;;5038029;28;20371;-72
2024/03/22 07:23:09;;;;;;;54.92;51.65;;;11.20;99.90;;;;;;5036415;28;20494;-74
2024/03/22 07:25:35;;;;;;;26.13;24.73;;;11.50;99.90;;;;;;5037799;28;20044;-76
2024/03/22 07:28:01;;;;;;;45.72;43.47;;;11.10;99.90;;;;;;5040667;28;20028;-76
2024/03/22 07:30:27;;;;;;;69.75;66.25;;;11.00;99.90;;;;;;5040383;28;20029;-76
2024/03/22 07:32:53;;;;;;;45.85;43.55;;;10.80;99.90;;;;;;5041200;28;20043;-76
2024/03/22 07:35:19;;;;;;;36.75;35.00;;;10.90;99.90;;;;;;5037853;28;20038;-73
2024/03/22 07:37:45;;;;;;;32.88;31.02;;;11.00;99.90;;;;;;5035958;28;20041;-73
2024/03/22 07:40:11;;;;;;;29.23;27.85;;;11.20;99.90;;;;;;5038843;28;20038;-72
2024/03/22 07:42:37;;;;;;;30.48;28.92;;;11.30;99.90;;;;;;5038144;28;20108;-72
2024/03/22 07:45:04;;;;;;;30.90;29.42;;;11.40;99.90;;;;;;5037976;28;20406;-71
2024/03/22 07:47:30;;;;;;;26.52;25.25;;;11.40;99.90;;;;;;5037061;28;20041;-72
2024/03/22 07:49:56;;;;;;;32.45;30.90;;;11.50;99.90;;;;;;5052758;28;20033;-71
2024/03/22 07:52:24;;;;;;;43.67;41.45;;;11.20;99.90;;;;;;5036901;28;20053;-77
2024/03/22 07:54:50;;;;;;;29.88;28.45;;;11.20;99.90;;;;;;5038034;28;20042;-77
2024/03/22 07:57:16;;;;;;;38.60;36.78;;;11.20;99.90;;;;;;5041792;28;20501;-77
2024/03/22 07:59:43;;;;;;;34.15;32.55;;;11.20;99.90;;;;;;5053600;28;20040;-77
2024/03/22 08:02:10;;;;;;;30.63;29.10;;;11.40;99.90;;;;;;5039767;28;20370;-78
2024/03/22 08:04:36;;;;;;;29.45;28.02;;;11.50;99.90;;;;;;5036359;28;20348;-77
2024/03/22 08:07:02;;;;;;;29.73;28.30;;;11.50;99.90;;;;;;5033386;28;20048;-77
2024/03/22 08:09:28;;;;;;;50.38;47.80;;;11.60;99.90;;;;;;5048701;28;20033;-77
2024/03/22 08:11:54;;;;;;;46.47;44.28;;;11.60;99.90;;;;;;5032382;28;20033;-76
2024/03/22 08:14:21;;;;;;;44.40;42.30;;;11.60;99.90;;;;;;5043621;28;20043;-77
2024/03/22 08:16:47;;;;;;;58.75;55.90;;;11.70;99.90;;;;;;5042167;28;20045;-77
2024/03/22 08:19:13;;;;;;;36.42;34.72;;;11.80;99.90;;;;;;5047160;28;20036;-76
2024/03/22 08:21:39;;;;;;;73.05;69.60;;;11.90;99.90;;;;;;5034687;28;20041;-76
2024/03/22 08:24:05;;;;;;;56.33;53.40;;;12.00;99.90;;;;;;5033545;28;20513;-76
2024/03/22 08:26:31;;;;;;;25.40;24.00;;;12.00;99.90;;;;;;5033165;28;20030;-76
2024/03/22 08:28:57;;;;;;;26.38;25.15;;;11.60;99.90;;;;;;5033727;28;20033;-76
2024/03/22 08:31:25;;;;;;;27.95;26.65;;;11.40;99.90;;;;;;5033212;28;20052;-76
2024/03/22 08:33:56;;;;;;;26.63;25.40;;;11.60;99.90;;;;;;5037666;28;20036;-77
2024/03/22 08:36:23;;;;;;;27.52;26.23;;;11.80;99.90;;;;;;5029225;28;20056;-77
2024/03/22 08:38:49;;;;;;;24.83;23.70;;;12.20;99.90;;;;;;5033039;28;20042;-77
2024/03/22 08:41:15;;;;;;;23.88;22.77;;;12.40;99.90;;;;;;5032528;28;20441;-76
2024/03/22 08:43:42;;;;;;;26.10;24.85;;;12.70;99.90;;;;;;5032426;28;20049;-78
2024/03/22 08:46:08;;;;;;;33.35;30.27;;;12.80;99.90;;;;;;5028799;28;20402;-78
2024/03/22 08:48:34;;;;;;;35.65;33.97;;;13.00;99.90;;;;;;5032775;28;20135;-77
2024/03/22 08:51:00;;;;;;;26.02;24.80;;;13.10;99.90;;;;;;5029597;28;20386;-78
2024/03/22 08:53:26;;;;;;;28.17;26.88;;;13.30;99.90;;;;;;5027777;28;20037;-77
2024/03/22 08:55:52;;;;;;;25.10;23.90;;;13.30;99.90;;;;;;5049800;28;20383;-77
2024/03/22 08:58:18;;;;;;;29.42;28.02;;;13.40;99.90;;;;;;5033543;28;20049;-77
2024/03/22 09:00:44;;;;;;;30.13;28.73;;;13.30;99.90;;;;;;5031866;28;20502;-77
2024/03/22 09:03:10;;;;;;;37.53;35.72;;;13.30;99.90;;;;;;5040588;28;20044;-78
2024/03/22 09:05:37;;;;;;;42.83;40.80;;;13.30;99.90;;;;;;5036220;28;20030;-77
2024/03/22 09:08:03;;;;;;;28.05;26.75;;;13.20;99.90;;;;;;5033904;28;20040;-77
2024/03/22 09:10:30;;;;;;;39.42;37.33;;;13.20;99.90;;;;;;5034536;28;20937;-77
2024/03/22 09:12:56;;;;;;;42.47;40.33;;;13.20;99.90;;;;;;5034475;28;20052;-73
2024/03/22 09:15:22;;;;;;;34.25;32.35;;;13.00;99.90;;;;;;5029304;28;20033;-72
2024/03/22 09:17:48;;;;;;;41.72;39.78;;;12.80;99.90;;;;;;5034014;28;20067;-72
2024/03/22 09:20:14;;;;;;;35.35;33.67;;;12.90;99.90;;;;;;5030852;28;20045;-73
2024/03/22 09:22:40;;;;;;;63.05;60.05;;;13.10;99.90;;;;;;5032810;28;20052;-72
2024/03/22 09:25:07;;;;;;;42.30;40.33;;;13.30;99.90;;;;;;5032976;28;20056;-73
2024/03/22 09:27:33;;;;;;;40.20;38.33;;;13.30;99.90;;;;;;5034086;28;20035;-73
2024/03/22 09:30:01;;;;;;;63.80;60.75;;;13.30;99.90;;;;;;5033208;28;20046;-73
2024/03/22 09:32:27;;;;;;;88.85;84.45;;;13.50;99.90;;;;;;5030927;28;20409;-74
2024/03/22 09:34:53;;;;;;;70.38;67.00;;;13.70;99.90;;;;;;5035172;28;20045;-74
2024/03/22 09:37:19;;;;;;;44.92;42.80;;;14.10;99.90;;;;;;5033650;28;20053;-73
2024/03/22 09:39:45;;;;;;;71.35;67.95;;;14.30;99.90;;;;;;5036986;28;20033;-76
2024/03/22 09:42:16;;;;;;;167.77;159.57;;;14.50;99.90;;;;;;5032456;28;20056;-74
2024/03/22 09:44:47;;;;;;;190.68;181.25;;;14.80;99.90;;;;;;5030580;28;20402;-74
2024/03/22 09:47:15;;;;;;;233.57;222.00;;;15.00;99.90;;;;;;5040507;28;20037;-74
2024/03/22 09:49:46;;;;;;;210.95;200.45;;;15.20;99.90;;;;;;5051387;28;20033;-74
2024/03/22 09:52:17;;;;;;;64.97;61.83;;;15.50;99.90;;;;;;5032786;28;20072;-73
2024/03/22 09:54:43;;;;;;;34.60;32.97;;;15.70;99.90;;;;;;5032875;28;20029;-74
2024/03/22 09:57:12;;;;;;;35.22;33.58;;;15.80;99.90;;;;;;5032916;28;20053;-70
2024/03/22 09:59:38;;;;;;;55.97;53.35;;;16.10;99.90;;;;;;5030920;28;20034;-70
2024/03/22 10:02:04;;;;;;;62.45;59.45;;;16.30;99.90;;;;;;5048189;28;20052;-70
2024/03/22 10:04:30;;;;;;;47.15;44.92;;;16.40;99.90;;;;;;5032323;28;20412;-70
2024/03/22 10:06:56;;;;;;;39.70;37.75;;;16.50;99.90;;;;;;5031320;28;20037;-70
2024/03/22 10:09:32;;;;;;;40.83;38.88;;;16.70;99.90;;;;;;5030434;28;20036;-70
2024/03/22 10:11:58;;;;;;;28.63;27.25;;;17.00;99.90;;;;;;5040885;28;20041;-70
2024/03/22 10:14:25;;;;;;;67.18;63.83;;;17.00;99.90;;;;;;5032005;28;20034;-70
2024/03/22 10:16:54;;;;;;;1999.90;999.90;;;16.70;99.90;;;;;;5033646;28;20048;-73
2024/03/22 10:19:21;;;;;;;1999.90;999.90;;;16.70;99.90;;;;;;5032568;28;20037;-71
2024/03/22 10:21:59;;;;;;;1999.90;999.90;;;17.00;99.90;;;;;;5034947;28;20071;-71
2024/03/22 10:24:25;;;;;;;1999.90;999.90;;;17.20;99.90;;;;;;5052967;28;20030;-71
2024/03/22 10:26:51;;;;;;;1999.90;999.90;;;17.20;99.90;;;;;;5030965;28;20021;-71
2024/03/22 10:29:17;;;;;;;1999.90;999.90;;;17.40;99.90;;;;;;5045597;28;20056;-71
2024/03/22 10:31:43;;;;;;;1999.90;999.90;;;17.60;99.90;;;;;;5045646;28;20026;-71
2024/03/22 10:34:09;;;;;;;1999.90;999.90;;;17.70;99.90;;;;;;5029844;28;20029;-71
2024/03/22 10:36:35;;;;;;;1999.90;999.90;;;17.70;99.90;;;;;;5029500;28;20025;-71
2024/03/22 10:39:01;;;;;;;1999.90;999.90;;;17.80;99.90;;;;;;5031654;28;20394;-71
2024/03/22 10:41:27;;;;;;;1999.90;999.90;;;18.00;99.90;;;;;;5031201;28;20429;-71
2024/03/22 10:43:54;;;;;;;1999.90;999.90;;;17.90;99.90;;;;;;5030927;28;20052;-71
2024/03/22 10:46:20;;;;;;;1999.90;999.90;;;18.00;99.90;;;;;;5031575;28;20037;-71
2024/03/22 10:48:47;;;;;;;1999.90;999.90;;;18.20;99.90;;;;;;5030732;28;20040;-71
2024/03/22 10:51:14;;;;;;;1999.90;999.90;;;18.10;99.90;;;;;;5039857;28;20041;-72
2024/03/22 10:53:40;;;;;;;1999.90;999.90;;;17.60;99.90;;;;;;5033532;28;20033;-71
2024/03/22 10:56:06;;;;;;;1999.90;999.90;;;17.60;99.90;;;;;;5029546;28;20037;-72
2024/03/22 10:58:32;;;;;;;1999.90;999.90;;;17.80;99.90;;;;;;5031730;28;20080;-80
2024/03/22 11:00:58;;;;;;;1999.90;999.90;;;18.10;99.90;;;;;;5027560;28;20048;-68
2024/03/22 11:03:26;;;;;;;1999.90;999.90;;;18.10;99.90;;;;;;5044141;28;20350;-79
2024/03/22 11:05:59;;;;;;;1999.90;999.90;;;17.60;99.90;;;;;;5039201;28;20037;-80
2024/03/22 11:08:28;;;;;;;1999.90;999.90;;;17.70;99.90;;;;;;5030985;28;20048;-80
2024/03/22 11:10:56;;;;;;;1999.90;999.90;;;17.90;99.90;;;;;;5028811;28;20037;-80
2024/03/22 11:13:22;;;;;;;1999.90;999.90;;;18.20;99.90;;;;;;5028994;28;20509;-80
2024/03/22 11:15:51;;;;;;;1999.90;999.90;;;18.10;99.90;;;;;;5031277;28;20041;-80
2024/03/22 11:18:17;;;;;;;1999.90;999.90;;;17.90;99.90;;;;;;5029973;28;20082;-80
2024/03/22 11:20:44;;;;;;;1999.90;999.90;;;17.90;99.90;;;;;;5037707;28;20022;-80
2024/03/22 11:23:11;;;;;;;1999.90;999.90;;;18.10;99.90;;;;;;5046678;28;20025;-80
2024/03/22 11:25:37;;;;;;;1999.90;999.90;;;18.20;99.90;;;;;;5040042;28;20359;-80
2024/03/22 11:28:03;;;;;;;1999.90;999.90;;;18.50;99.90;;;;;;5031443;28;20037;-78
2024/03/22 11:30:30;;;;;;;1999.90;999.90;;;18.70;99.90;;;;;;5029907;28;21009;-78
2024/03/22 11:32:56;;;;;;;1999.90;999.90;;;18.50;99.90;;;;;;5029343;28;20022;-78
2024/03/22 11:35:23;;;;;;;1999.90;999.90;;;18.30;99.90;;;;;;5031997;28;20029;-78
2024/03/22 11:37:50;;;;;;;1999.90;999.90;;;18.10;99.90;;;;;;5031788;28;20061;-77
2024/03/22 11:40:16;;;;;;;1999.90;999.90;;;18.30;99.90;;;;;;5034107;28;20029;-80
2024/03/22 11:42:46;;;;;;;1999.90;999.90;;;18.10;99.90;;;;;;5038090;28;20386;-79
2024/03/22 11:45:14;;;;;;;1999.90;999.90;;;17.80;99.90;;;;;;5041722;28;20366;-80
2024/03/22 11:47:40;;;;;;;1999.90;999.90;;;17.70;99.90;;;;;;5032807;28;20053;-80
2024/03/22 11:50:06;;;;;;;1999.90;999.90;;;17.60;99.90;;;;;;5035138;28;20029;-80
2024/03/22 11:52:32;;;;;;;1999.90;999.90;;;17.10;99.90;;;;;;5037872;28;20025;-78
2024/03/22 11:54:59;;;;;;;1999.90;999.90;;;16.80;99.90;;;;;;5033552;28;20041;-80
2024/03/22 11:57:25;;;;;;;1999.90;999.90;;;16.50;99.90;;;;;;5032047;28;20033;-80
2024/03/22 11:59:52;;;;;;;1999.90;999.90;;;16.30;99.90;;;;;;5053472;28;20036;-80
2024/03/22 12:02:18;;;;;;;1999.90;999.90;;;16.30;99.90;;;;;;5036623;28;20064;-81
2024/03/22 12:04:47;;;;;;;1999.90;999.90;;;16.50;99.90;;;;;;5034546;28;20028;-80